Terminal Aerodrome Forecast
Issued by NWS

Home | Current Version | Previous Version | Text Only | Print | Product List | Glossary On
Versions: 1 2 3 4 5 6 7 8 9 10 11 12 13 14
455
FTUS43 KICT 271135
TAFRSL
TAF
KRSL 271135Z 2712/2812 14004KT P6SM SCT100 BKN250
     FM271600 13012KT P6SM OVC100
     FM272000 12016G23KT P6SM VCSH SCT035 OVC080
     FM280000 13014G22KT P6SM -SHRA VCTS OVC025CB
     FM280200 10013KT 5SM -SHRA OVC020
     FM280600 09008KT P6SM VCSH OVC008=

USA.gov is the U.S. government's official web portal to all federal, state and local government web resources and services.